sensor_id;sensor_type;location;lat;lon;timestamp;pressure;altitude;pressure_sealevel;temperature;humidity
13015;BME280;6573;57.696;11.950;2023-03-23T00:02:23;99665.63;;;10.09;100.00
13015;BME280;6573;57.696;11.950;2023-03-23T00:04:52;99658.75;;;10.01;100.00
13015;BME280;6573;57.696;11.950;2023-03-23T00:07:20;99646.50;;;10.01;100.00
13015;BME280;6573;57.696;11.950;2023-03-23T00:09:48;99616.03;;;9.91;100.00
13015;BME280;6573;57.696;11.950;2023-03-23T00:12:20;99636.09;;;9.95;100.00
13015;BME280;6573;57.696;11.950;2023-03-23T00:14:58;99628.19;;;9.97;100.00
13015;BME280;6573;57.696;11.950;2023-03-23T00:17:26;99579.91;;;9.58;100.00
13015;BME280;6573;57.696;11.950;2023-03-23T00:19:55;99649.06;;;10.03;100.00
13015;BME280;6573;57.696;11.950;2023-03-23T00:22:23;99598.19;;;9.64;100.00
13015;BME280;6573;57.696;11.950;2023-03-23T00:24:53;99646.72;;;9.89;100.00
13015;BME280;6573;57.696;11.950;2023-03-23T00:27:21;99647.66;;;9.85;100.00
13015;BME280;6573;57.696;11.950;2023-03-23T00:29:49;99637.28;;;9.77;100.00
13015;BME280;6573;57.696;11.950;2023-03-23T00:32:19;99644.84;;;9.97;100.00
13015;BME280;6573;57.696;11.950;2023-03-23T00:34:46;99647.38;;;10.02;100.00
13015;BME280;6573;57.696;11.950;2023-03-23T00:37:17;99656.22;;;9.96;100.00
13015;BME280;6573;57.696;11.950;2023-03-23T00:39:45;99636.22;;;9.89;100.00
13015;BME280;6573;57.696;11.950;2023-03-23T00:42:13;99638.06;;;9.84;100.00
13015;BME280;6573;57.696;11.950;2023-03-23T00:44:40;99642.63;;;9.73;100.00
13015;BME280;6573;57.696;11.950;2023-03-23T00:47:12;99613.81;;;9.70;100.00
13015;BME280;6573;57.696;11.950;2023-03-23T00:49:41;99629.50;;;9.73;100.00
13015;BME280;6573;57.696;11.950;2023-03-23T00:52:09;99629.38;;;9.82;100.00
13015;BME280;6573;57.696;11.950;2023-03-23T00:54:41;99629.38;;;9.82;100.00
13015;BME280;6573;57.696;11.950;2023-03-23T00:57:08;99636.28;;;9.86;100.00
13015;BME280;6573;57.696;11.950;2023-03-23T00:59:36;99629.22;;;9.88;100.00
13015;BME280;6573;57.696;11.950;2023-03-23T01:02:03;99622.13;;;9.93;100.00
13015;BME280;6573;57.696;11.950;2023-03-23T01:04:30;99623.88;;;9.94;100.00
13015;BME280;6573;57.696;11.950;2023-03-23T01:07:02;99608.22;;;9.88;100.00
13015;BME280;6573;57.696;11.950;2023-03-23T01:09:30;99611.63;;;9.93;100.00
13015;BME280;6573;57.696;11.950;2023-03-23T01:11:59;99623.91;;;9.91;100.00
13015;BME280;6573;57.696;11.950;2023-03-23T01:14:26;99624.66;;;9.98;100.00
13015;BME280;6573;57.696;11.950;2023-03-23T01:16:55;99627.38;;;9.93;100.00
13015;BME280;6573;57.696;11.950;2023-03-23T01:19:22;99618.44;;;10.03;100.00
13015;BME280;6573;57.696;11.950;2023-03-23T01:21:50;99622.75;;;10.06;100.00
13015;BME280;6573;57.696;11.950;2023-03-23T01:24:17;99611.25;;;10.14;100.00
13015;BME280;6573;57.696;11.950;2023-03-23T01:26:44;99602.19;;;9.83;100.00
13015;BME280;6573;57.696;11.950;2023-03-23T01:29:15;99616.81;;;9.96;100.00
13015;BME280;6573;57.696;11.950;2023-03-23T01:31:43;99604.03;;;9.78;100.00
13015;BME280;6573;57.696;11.950;2023-03-23T01:34:10;99609.03;;;9.90;100.00
13015;BME280;6573;57.696;11.950;2023-03-23T01:36:37;99618.44;;;10.03;100.00
13015;BME280;6573;57.696;11.950;2023-03-23T01:39:05;99578.75;;;9.74;100.00
13015;BME280;6573;57.696;11.950;2023-03-23T01:41:34;99611.03;;;9.79;100.00
13015;BME280;6573;57.696;11.950;2023-03-23T01:44:03;99595.28;;;9.79;100.00
13015;BME280;6573;57.696;11.950;2023-03-23T01:46:33;99601.31;;;9.84;100.00
13015;BME280;6573;57.696;11.950;2023-03-23T01:49:03;99557.91;;;9.65;100.00
13015;BME280;6573;57.696;11.950;2023-03-23T01:51:36;99574.38;;;9.73;100.00
13015;BME280;6573;57.696;11.950;2023-03-23T01:54:06;99593.38;;;9.87;100.00
13015;BME280;6573;57.696;11.950;2023-03-23T01:56:38;99582.09;;;9.82;100.00
13015;BME280;6573;57.696;11.950;2023-03-23T01:59:12;99564.59;;;9.81;100.00
13015;BME280;6573;57.696;11.950;2023-03-23T02:01:42;99573.19;;;9.89;100.00
13015;BME280;6573;57.696;11.950;2023-03-23T02:04:25;99587.16;;;9.91;100.00
13015;BME280;6573;57.696;11.950;2023-03-23T02:06:53;99582.63;;;9.98;100.00
13015;BME280;6573;57.696;11.950;2023-03-23T02:09:24;99585.19;;;10.01;100.00
13015;BME280;6573;57.696;11.950;2023-03-23T02:11:53;99569.78;;;9.84;100.00
13015;BME280;6573;57.696;11.950;2023-03-23T02:14:24;99564.47;;;9.87;100.00
13015;BME280;6573;57.696;11.950;2023-03-23T02:17:00;99586.84;;;10.06;100.00
13015;BME280;6573;57.696;11.950;2023-03-23T02:19:56;99572.72;;;10.10;100.00
13015;BME280;6573;57.696;11.950;2023-03-23T02:23:01;99545.22;;;9.85;100.00
13015;BME280;6573;57.696;11.950;2023-03-23T02:25:58;99560.78;;;9.97;100.00
13015;BME280;6573;57.696;11.950;2023-03-23T02:28:48;99565.78;;;10.09;100.00
13015;BME280;6573;57.696;11.950;2023-03-23T02:31:39;99566.16;;;10.34;100.00
13015;BME280;6573;57.696;11.950;2023-03-23T02:34:11;99565.81;;;10.48;100.00
13015;BME280;6573;57.696;11.950;2023-03-23T02:36:43;99528.25;;;10.43;100.00
13015;BME280;6573;57.696;11.950;2023-03-23T02:39:14;99549.09;;;10.52;100.00
13015;BME280;6573;57.696;11.950;2023-03-23T02:41:49;99542.78;;;10.59;100.00
13015;BME280;6573;57.696;11.950;2023-03-23T02:44:17;99538.72;;;10.46;100.00
13015;BME280;6573;57.696;11.950;2023-03-23T02:46:45;99540.22;;;10.56;100.00
13015;BME280;6573;57.696;11.950;2023-03-23T02:49:16;99548.69;;;10.68;100.00
13015;BME280;6573;57.696;11.950;2023-03-23T02:51:50;99539.25;;;10.60;100.00
13015;BME280;6573;57.696;11.950;2023-03-23T02:54:22;99533.31;;;10.52;100.00
13015;BME280;6573;57.696;11.950;2023-03-23T02:56:54;99510.47;;;10.54;100.00
13015;BME280;6573;57.696;11.950;2023-03-23T02:59:21;99526.25;;;10.54;100.00
13015;BME280;6573;57.696;11.950;2023-03-23T03:02:04;99519.19;;;10.56;100.00
13015;BME280;6573;57.696;11.950;2023-03-23T03:04:35;99475.91;;;10.33;100.00
13015;BME280;6573;57.696;11.950;2023-03-23T03:07:25;99515.38;;;10.69;100.00
13015;BME280;6573;57.696;11.950;2023-03-23T03:09:57;99504.63;;;10.78;100.00
13015;BME280;6573;57.696;11.950;2023-03-23T03:12:32;99504.69;;;10.75;100.00
13015;BME280;6573;57.696;11.950;2023-03-23T03:15:10;99507.41;;;10.72;100.00
13015;BME280;6573;57.696;11.950;2023-03-23T03:17:47;99506.50;;;10.73;100.00
13015;BME280;6573;57.696;11.950;2023-03-23T03:20:21;99471.94;;;10.53;100.00
13015;BME280;6573;57.696;11.950;2023-03-23T03:22:55;99479.00;;;10.51;100.00
13015;BME280;6573;57.696;11.950;2023-03-23T03:25:23;99506.56;;;10.70;100.00
13015;BME280;6573;57.696;11.950;2023-03-23T03:27:55;99499.81;;;10.60;100.00
13015;BME280;6573;57.696;11.950;2023-03-23T03:30:26;99453.25;;;10.29;100.00
13015;BME280;6573;57.696;11.950;2023-03-23T03:32:57;99511.84;;;10.70;100.00
13015;BME280;6573;57.696;11.950;2023-03-23T03:35:30;99501.69;;;10.55;100.00
13015;BME280;6573;57.696;11.950;2023-03-23T03:38:05;99432.28;;;10.26;100.00
13015;BME280;6573;57.696;11.950;2023-03-23T03:40:36;99461.50;;;10.50;100.00
13015;BME280;6573;57.696;11.950;2023-03-23T03:43:04;99490.59;;;10.79;100.00
13015;BME280;6573;57.696;11.950;2023-03-23T03:45:35;99440.38;;;10.53;100.00
13015;BME280;6573;57.696;11.950;2023-03-23T03:48:02;99485.03;;;10.91;100.00
13015;BME280;6573;57.696;11.950;2023-03-23T03:50:31;99442.44;;;10.75;100.00
13015;BME280;6573;57.696;11.950;2023-03-23T03:52:58;99492.00;;;10.92;100.00
13015;BME280;6573;57.696;11.950;2023-03-23T03:55:25;99467.50;;;10.90;100.00
13015;BME280;6573;57.696;11.950;2023-03-23T03:57:53;99497.09;;;10.98;100.00
13015;BME280;6573;57.696;11.950;2023-03-23T04:00:21;99483.19;;;10.93;100.00
13015;BME280;6573;57.696;11.950;2023-03-23T04:02:52;99424.81;;;10.45;100.00
13015;BME280;6573;57.696;11.950;2023-03-23T04:05:21;99471.88;;;10.89;100.00
13015;BME280;6573;57.696;11.950;2023-03-23T04:07:51;99408.84;;;10.53;100.00
13015;BME280;6573;57.696;11.950;2023-03-23T04:10:29;99393.25;;;10.47;100.00
13015;BME280;6573;57.696;11.950;2023-03-23T04:12:57;99480.66;;;10.90;100.00
13015;BME280;6573;57.696;11.950;2023-03-23T04:15:25;99474.25;;;11.00;100.00
13015;BME280;6573;57.696;11.950;2023-03-23T04:17:52;99470.72;;;11.01;100.00
13015;BME280;6573;57.696;11.950;2023-03-23T04:20:22;99443.69;;;10.61;100.00
13015;BME280;6573;57.696;11.950;2023-03-23T04:22:54;99470.44;;;10.78;100.00
13015;BME280;6573;57.696;11.950;2023-03-23T04:25:23;99464.19;;;10.82;100.00
13015;BME280;6573;57.696;11.950;2023-03-23T04:27:51;99463.22;;;10.86;100.00
13015;BME280;6573;57.696;11.950;2023-03-23T04:30:23;99436.16;;;10.81;100.00
13015;BME280;6573;57.696;11.950;2023-03-23T04:32:58;99453.44;;;10.91;100.00
13015;BME280;6573;57.696;11.950;2023-03-23T04:35:27;99448.19;;;10.91;100.00
13015;BME280;6573;57.696;11.950;2023-03-23T04:37:58;99444.50;;;10.98;100.00
13015;BME280;6573;57.696;11.950;2023-03-23T04:40:28;99425.66;;;10.81;100.00
13015;BME280;6573;57.696;11.950;2023-03-23T04:42:56;99442.84;;;10.94;100.00
13015;BME280;6573;57.696;11.950;2023-03-23T04:45:26;99434.28;;;10.86;100.00
13015;BME280;6573;57.696;11.950;2023-03-23T04:47:54;99437.06;;;10.80;100.00
13015;BME280;6573;57.696;11.950;2023-03-23T04:50:24;99436.09;;;10.84;100.00
13015;BME280;6573;57.696;11.950;2023-03-23T04:52:58;99423.84;;;10.83;100.00
13015;BME280;6573;57.696;11.950;2023-03-23T04:55:30;99363.25;;;10.54;100.00
13015;BME280;6573;57.696;11.950;2023-03-23T04:57:59;99446.00;;;11.06;100.00
13015;BME280;6573;57.696;11.950;2023-03-23T05:00:27;99371.97;;;10.56;100.00
13015;BME280;6573;57.696;11.950;2023-03-23T05:02:56;99442.94;;;10.91;100.00
13015;BME280;6573;57.696;11.950;2023-03-23T05:05:24;99438.97;;;11.07;100.00
13015;BME280;6573;57.696;11.950;2023-03-23T05:07:57;99385.47;;;10.76;100.00
13015;BME280;6573;57.696;11.950;2023-03-23T05:10:27;99424.19;;;11.01;100.00
13015;BME280;6573;57.696;11.950;2023-03-23T05:12:57;99402.38;;;10.98;100.00
13015;BME280;6573;57.696;11.950;2023-03-23T05:15:27;99423.38;;;11.01;100.00
13015;BME280;6573;57.696;11.950;2023-03-23T05:17:54;99434.44;;;11.14;100.00
13015;BME280;6573;57.696;11.950;2023-03-23T05:20:21;99426.56;;;11.12;100.00
13015;BME280;6573;57.696;11.950;2023-03-23T05:22:53;99418.72;;;11.09;100.00
13015;BME280;6573;57.696;11.950;2023-03-23T05:25:27;99424.84;;;11.11;100.00
13015;BME280;6573;57.696;11.950;2023-03-23T05:27:54;99434.84;;;11.29;100.00
13015;BME280;6573;57.696;11.950;2023-03-23T05:30:24;99403.94;;;11.05;100.00
13015;BME280;6573;57.696;11.950;2023-03-23T05:32:52;99411.19;;;10.97;100.00
13015;BME280;6573;57.696;11.950;2023-03-23T05:35:19;99432.34;;;10.94;100.00
13015;BME280;6573;57.696;11.950;2023-03-23T05:37:51;99404.81;;;10.73;100.00
13015;BME280;6573;57.696;11.950;2023-03-23T05:40:19;99427.97;;;10.93;100.00
13015;BME280;6573;57.696;11.950;2023-03-23T05:42:51;99425.13;;;11.00;100.00
13015;BME280;6573;57.696;11.950;2023-03-23T05:45:21;99373.69;;;10.57;100.00
13015;BME280;6573;57.696;11.950;2023-03-23T05:47:49;99418.50;;;10.86;100.00
13015;BME280;6573;57.696;11.950;2023-03-23T05:50:17;99417.63;;;10.85;100.00
13015;BME280;6573;57.696;11.950;2023-03-23T05:52:48;99418.25;;;10.95;100.00
13015;BME280;6573;57.696;11.950;2023-03-23T05:55:16;99416.44;;;10.97;100.00
13015;BME280;6573;57.696;11.950;2023-03-23T05:57:45;99401.91;;;10.84;100.00
13015;BME280;6573;57.696;11.950;2023-03-23T06:00:25;99415.94;;;10.83;100.00
13015;BME280;6573;57.696;11.950;2023-03-23T06:02:56;99403.06;;;10.74;100.00
13015;BME280;6573;57.696;11.950;2023-03-23T06:05:24;99396.13;;;10.70;100.00
13015;BME280;6573;57.696;11.950;2023-03-23T06:07:54;99412.31;;;10.87;100.00
13015;BME280;6573;57.696;11.950;2023-03-23T06:10:22;99420.81;;;10.98;100.00
13015;BME280;6573;57.696;11.950;2023-03-23T06:12:49;99424.38;;;10.95;100.00
13015;BME280;6573;57.696;11.950;2023-03-23T06:15:19;99395.03;;;10.78;100.00
13015;BME280;6573;57.696;11.950;2023-03-23T06:17:46;99416.28;;;11.03;100.00
13015;BME280;6573;57.696;11.950;2023-03-23T06:20:13;99424.13;;;11.04;100.00
13015;BME280;6573;57.696;11.950;2023-03-23T06:22:40;99405.56;;;11.09;100.00
13015;BME280;6573;57.696;11.950;2023-03-23T06:25:09;99381.41;;;10.95;100.00
13015;BME280;6573;57.696;11.950;2023-03-23T06:27:38;99396.53;;;10.87;100.00
13015;BME280;6573;57.696;11.950;2023-03-23T06:30:07;99381.34;;;10.98;100.00
13015;BME280;6573;57.696;11.950;2023-03-23T06:32:37;99366.75;;;10.86;100.00
13015;BME280;6573;57.696;11.950;2023-03-23T06:35:09;99386.69;;;10.95;100.00
13015;BME280;6573;57.696;11.950;2023-03-23T06:37:37;99395.06;;;11.09;100.00
13015;BME280;6573;57.696;11.950;2023-03-23T06:40:06;99376.59;;;11.11;100.00
13015;BME280;6573;57.696;11.950;2023-03-23T06:42:34;99367.38;;;10.96;100.00
13015;BME280;6573;57.696;11.950;2023-03-23T06:45:01;99389.38;;;11.24;100.00
13015;BME280;6573;57.696;11.950;2023-03-23T06:47:29;99387.66;;;11.23;100.00
13015;BME280;6573;57.696;11.950;2023-03-23T06:49:58;99375.47;;;11.19;100.00
13015;BME280;6573;57.696;11.950;2023-03-23T06:52:26;99385.16;;;11.19;100.00
13015;BME280;6573;57.696;11.950;2023-03-23T06:54:53;99375.81;;;11.07;100.00
13015;BME280;6573;57.696;11.950;2023-03-23T06:57:23;99376.91;;;11.00;100.00
13015;BME280;6573;57.696;11.950;2023-03-23T06:59:52;99377.56;;;11.08;100.00
13015;BME280;6573;57.696;11.950;2023-03-23T07:02:19;99374.19;;;11.03;100.00
13015;BME280;6573;57.696;11.950;2023-03-23T07:04:46;99381.81;;;10.80;100.00
13015;BME280;6573;57.696;11.950;2023-03-23T07:07:15;99373.06;;;10.79;100.00
13015;BME280;6573;57.696;11.950;2023-03-23T07:09:44;99362.53;;;10.81;100.00
13015;BME280;6573;57.696;11.950;2023-03-23T07:12:11;99353.41;;;10.94;100.00
13015;BME280;6573;57.696;11.950;2023-03-23T07:14:40;99361.78;;;11.08;100.00
13015;BME280;6573;57.696;11.950;2023-03-23T07:17:07;99344.16;;;11.10;100.00
13015;BME280;6573;57.696;11.950;2023-03-23T07:19:34;99333.56;;;11.13;100.00
13015;BME280;6573;57.696;11.950;2023-03-23T07:22:04;99326.47;;;11.15;100.00
13015;BME280;6573;57.696;11.950;2023-03-23T07:24:33;99326.03;;;11.30;100.00
13015;BME280;6573;57.696;11.950;2023-03-23T07:27:00;99312.06;;;11.28;100.00
13015;BME280;6573;57.696;11.950;2023-03-23T07:29:29;99320.41;;;11.42;100.00
13015;BME280;6573;57.696;11.950;2023-03-23T07:31:56;99328.84;;;11.53;100.00
13015;BME280;6573;57.696;11.950;2023-03-23T07:34:24;99329.81;;;11.49;100.00
13015;BME280;6573;57.696;11.950;2023-03-23T07:36:54;99328.72;;;11.56;100.00
13015;BME280;6573;57.696;11.950;2023-03-23T07:39:21;99312.41;;;11.45;100.00
13015;BME280;6573;57.696;11.950;2023-03-23T07:41:50;99316.50;;;11.55;100.00
13015;BME280;6573;57.696;11.950;2023-03-23T07:44:18;99323.28;;;11.62;100.00
13015;BME280;6573;57.696;11.950;2023-03-23T07:46:45;99325.84;;;11.65;100.00
13015;BME280;6573;57.696;11.950;2023-03-23T07:49:13;99323.19;;;11.65;100.00
13015;BME280;6573;57.696;11.950;2023-03-23T07:51:40;99314.00;;;11.79;100.00
13015;BME280;6573;57.696;11.950;2023-03-23T07:54:07;99314.69;;;11.85;100.00
13015;BME280;6573;57.696;11.950;2023-03-23T07:56:38;99308.25;;;11.94;100.00
13015;BME280;6573;57.696;11.950;2023-03-23T07:59:08;99297.53;;;12.00;100.00
13015;BME280;6573;57.696;11.950;2023-03-23T08:01:35;99297.63;;;11.97;100.00
13015;BME280;6573;57.696;11.950;2023-03-23T08:04:02;99293.59;;;12.13;100.00
13015;BME280;6573;57.696;11.950;2023-03-23T08:06:32;99294.88;;;12.26;100.00
13015;BME280;6573;57.696;11.950;2023-03-23T08:08:59;99301.00;;;12.26;100.00
13015;BME280;6573;57.696;11.950;2023-03-23T08:11:33;99300.94;;;12.28;100.00
13015;BME280;6573;57.696;11.950;2023-03-23T08:14:00;99297.41;;;12.29;100.00
13015;BME280;6573;57.696;11.950;2023-03-23T08:16:29;99292.94;;;12.31;100.00
13015;BME280;6573;57.696;11.950;2023-03-23T08:18:56;99292.84;;;12.34;100.00
13015;BME280;6573;57.696;11.950;2023-03-23T08:21:23;99280.16;;;12.45;100.00
13015;BME280;6573;57.696;11.950;2023-03-23T08:23:53;99278.00;;;12.56;100.00
13015;BME280;6573;57.696;11.950;2023-03-23T08:26:20;99288.78;;;12.50;100.00
13015;BME280;6573;57.696;11.950;2023-03-23T08:28:47;99285.53;;;12.67;100.00
13015;BME280;6573;57.696;11.950;2023-03-23T08:31:14;99284.22;;;12.78;100.00
13015;BME280;6573;57.696;11.950;2023-03-23T08:33:44;99283.47;;;12.99;100.00
13015;BME280;6573;57.696;11.950;2023-03-23T08:36:12;99281.31;;;13.11;100.00
13015;BME280;6573;57.696;11.950;2023-03-23T08:38:39;99280.13;;;12.94;100.00
13015;BME280;6573;57.696;11.950;2023-03-23T08:41:07;99277.00;;;12.83;100.00
13015;BME280;6573;57.696;11.950;2023-03-23T08:43:35;99278.84;;;12.81;100.00
13015;BME280;6573;57.696;11.950;2023-03-23T08:46:03;99285.19;;;12.76;100.00
13015;BME280;6573;57.696;11.950;2023-03-23T08:48:35;99275.16;;;12.85;100.00
13015;BME280;6573;57.696;11.950;2023-03-23T08:51:06;99277.56;;;12.68;100.00
13015;BME280;6573;57.696;11.950;2023-03-23T08:53:34;99270.88;;;12.58;100.00
13015;BME280;6573;57.696;11.950;2023-03-23T08:56:04;99269.25;;;12.79;100.00
13015;BME280;6573;57.696;11.950;2023-03-23T08:58:31;99250.63;;;12.83;100.00
13015;BME280;6573;57.696;11.950;2023-03-23T09:00:59;99260.03;;;12.90;100.00
13015;BME280;6573;57.696;11.950;2023-03-23T09:03:26;99256.75;;;12.84;100.00
13015;BME280;6573;57.696;11.950;2023-03-23T09:05:57;99231.19;;;12.86;100.00
13015;BME280;6573;57.696;11.950;2023-03-23T09:08:27;99234.22;;;12.98;100.00
13015;BME280;6573;57.696;11.950;2023-03-23T09:10:58;99222.50;;;13.07;100.00
13015;BME280;6573;57.696;11.950;2023-03-23T09:13:26;99233.56;;;13.17;100.00
13015;BME280;6573;57.696;11.950;2023-03-23T09:15:53;99224.22;;;13.30;100.00
13015;BME280;6573;57.696;11.950;2023-03-23T09:18:21;99236.63;;;13.28;100.00
13015;BME280;6573;57.696;11.950;2023-03-23T09:20:50;99230.44;;;13.29;100.00
13015;BME280;6573;57.696;11.950;2023-03-23T09:23:17;99229.19;;;13.37;100.00
13015;BME280;6573;57.696;11.950;2023-03-23T09:25:46;99227.91;;;13.47;100.00
13015;BME280;6573;57.696;11.950;2023-03-23T09:28:13;99225.25;;;13.49;100.00
13015;BME280;6573;57.696;11.950;2023-03-23T09:30:40;99218.22;;;13.48;100.00
13015;BME280;6573;57.696;11.950;2023-03-23T09:33:09;99219.16;;;13.47;100.00
13015;BME280;6573;57.696;11.950;2023-03-23T09:35:37;99232.38;;;13.47;100.00
13015;BME280;6573;57.696;11.950;2023-03-23T09:38:08;99218.41;;;13.43;100.00
13015;BME280;6573;57.696;11.950;2023-03-23T09:40:43;99216.75;;;13.41;100.00
13015;BME280;6573;57.696;11.950;2023-03-23T09:43:29;99218.72;;;13.36;100.00
13015;BME280;6573;57.696;11.950;2023-03-23T09:46:13;99221.72;;;13.27;100.00
13015;BME280;6573;57.696;11.950;2023-03-23T09:48:50;99222.41;;;13.32;100.00
13015;BME280;6573;57.696;11.950;2023-03-23T09:51:28;99218.59;;;13.39;100.00
13015;BME280;6573;57.696;11.950;2023-03-23T09:54:01;99207.03;;;13.20;100.00
13015;BME280;6573;57.696;11.950;2023-03-23T09:56:31;99221.38;;;13.13;100.00
13015;BME280;6573;57.696;11.950;2023-03-23T09:59:07;99214.25;;;12.91;100.00
13015;BME280;6573;57.696;11.950;2023-03-23T10:01:40;99212.13;;;13.01;100.00
13015;BME280;6573;57.696;11.950;2023-03-23T10:04:15;99218.16;;;13.05;100.00
13015;BME280;6573;57.696;11.950;2023-03-23T10:06:46;99217.22;;;13.06;100.00
13015;BME280;6573;57.696;11.950;2023-03-23T10:09:16;99219.88;;;13.06;100.00
13015;BME280;6573;57.696;11.950;2023-03-23T10:11:53;99192.22;;;12.92;100.00
13015;BME280;6573;57.696;11.950;2023-03-23T10:14:47;99213.31;;;13.17;100.00
13015;BME280;6573;57.696;11.950;2023-03-23T10:17:23;99206.78;;;13.02;100.00
13015;BME280;6573;57.696;11.950;2023-03-23T10:20:00;99199.47;;;12.87;100.00
13015;BME280;6573;57.696;11.950;2023-03-23T10:22:40;99199.22;;;12.93;100.00
13015;BME280;6573;57.696;11.950;2023-03-23T10:25:15;99178.94;;;12.72;100.00
13015;BME280;6573;57.696;11.950;2023-03-23T10:27:46;99187.78;;;12.93;100.00
13015;BME280;6573;57.696;11.950;2023-03-23T10:30:21;99188.56;;;12.96;100.00
13015;BME280;6573;57.696;11.950;2023-03-23T10:32:53;99191.22;;;12.95;100.00
13015;BME280;6573;57.696;11.950;2023-03-23T10:35:26;99179.47;;;13.04;100.00
13015;BME280;6573;57.696;11.950;2023-03-23T10:37:59;99172.81;;;12.93;100.00
13015;BME280;6573;57.696;11.950;2023-03-23T10:40:29;99178.22;;;12.90;100.00
13015;BME280;6573;57.696;11.950;2023-03-23T10:42:58;99173.78;;;12.69;100.00
13015;BME280;6573;57.696;11.950;2023-03-23T10:45:28;99184.44;;;12.66;100.00
13015;BME280;6573;57.696;11.950;2023-03-23T10:48:06;99175.47;;;12.70;100.00
13015;BME280;6573;57.696;11.950;2023-03-23T10:50:37;99178.78;;;12.75;100.00
13015;BME280;6573;57.696;11.950;2023-03-23T10:53:14;99171.00;;;12.49;100.00
13015;BME280;6573;57.696;11.950;2023-03-23T10:55:42;99172.84;;;12.47;100.00
13015;BME280;6573;57.696;11.950;2023-03-23T10:58:22;99173.88;;;12.66;100.00
13015;BME280;6573;57.696;11.950;2023-03-23T11:00:58;99167.22;;;12.56;100.00
13015;BME280;6573;57.696;11.950;2023-03-23T11:03:39;99153.69;;;12.65;100.00
13015;BME280;6573;57.696;11.950;2023-03-23T11:06:07;99156.38;;;12.64;100.00
13015;BME280;6573;57.696;11.950;2023-03-23T11:08:46;99180.88;;;12.67;100.00
13015;BME280;6573;57.696;11.950;2023-03-23T11:11:17;99173.28;;;12.58;100.00
13015;BME280;6573;57.696;11.950;2023-03-23T11:13:46;99170.91;;;12.52;100.00
13015;BME280;6573;57.696;11.950;2023-03-23T11:16:24;99176.50;;;12.43;100.00
13015;BME280;6573;57.696;11.950;2023-03-23T11:18:51;99178.22;;;12.44;100.00
13015;BME280;6573;57.696;11.950;2023-03-23T11:21:20;99172.16;;;12.42;100.00
13015;BME280;6573;57.696;11.950;2023-03-23T11:23:50;99177.81;;;12.07;100.00
13015;BME280;6573;57.696;11.950;2023-03-23T11:26:21;99175.88;;;12.12;100.00
13015;BME280;6573;57.696;11.950;2023-03-23T11:28:53;99161.22;;;12.28;100.00
13015;BME280;6573;57.696;11.950;2023-03-23T11:31:26;99180.63;;;12.27;100.00
13015;BME280;6573;57.696;11.950;2023-03-23T11:33:57;99160.25;;;12.06;100.00
13015;BME280;6573;57.696;11.950;2023-03-23T11:36:31;99166.63;;;12.25;100.00
13015;BME280;6573;57.696;11.950;2023-03-23T11:38:59;99179.94;;;11.96;100.00
13015;BME280;6573;57.696;11.950;2023-03-23T11:41:34;99162.34;;;11.98;100.00
13015;BME280;6573;57.696;11.950;2023-03-23T11:44:10;99171.56;;;11.85;100.00
13015;BME280;6573;57.696;11.950;2023-03-23T11:46:55;99167.47;;;12.01;100.00
13015;BME280;6573;57.696;11.950;2023-03-23T11:49:33;99168.41;;;11.74;100.00
13015;BME280;6573;57.696;11.950;2023-03-23T11:52:11;99161.53;;;11.69;100.00
13015;BME280;6573;57.696;11.950;2023-03-23T11:54:45;99163.91;;;11.77;100.00
13015;BME280;6573;57.696;11.950;2023-03-23T11:57:13;99166.81;;;11.69;100.00
13015;BME280;6573;57.696;11.950;2023-03-23T11:59:41;99168.84;;;11.88;100.00
13015;BME280;6573;57.696;11.950;2023-03-23T12:02:26;99168.75;;;11.91;100.00
13015;BME280;6573;57.696;11.950;2023-03-23T12:05:16;99168.88;;;12.11;100.00
13015;BME280;6573;57.696;11.950;2023-03-23T12:07:54;99160.94;;;11.88;100.00
13015;BME280;6573;57.696;11.950;2023-03-23T12:10:30;99168.25;;;12.04;100.00
13015;BME280;6573;57.696;11.950;2023-03-23T12:13:17;99170.28;;;12.21;100.00
13015;BME280;6573;57.696;11.950;2023-03-23T12:15:56;99176.06;;;12.06;100.00
13015;BME280;6573;57.696;11.950;2023-03-23T12:18:37;99171.56;;;12.09;100.00
13015;BME280;6573;57.696;11.950;2023-03-23T12:21:19;99183.28;;;12.01;100.00
13015;BME280;6573;57.696;11.950;2023-03-23T12:23:56;99169.31;;;11.99;100.00
13015;BME280;6573;57.696;11.950;2023-03-23T12:26:29;99144.19;;;11.89;100.00
13015;BME280;6573;57.696;11.950;2023-03-23T12:29:16;99174.03;;;12.14;100.00
13015;BME280;6573;57.696;11.950;2023-03-23T12:31:59;99171.03;;;12.00;100.00
13015;BME280;6573;57.696;11.950;2023-03-23T12:34:40;99177.34;;;11.69;100.00
13015;BME280;6573;57.696;11.950;2023-03-23T12:37:35;99167.19;;;11.84;100.00
13015;BME280;6573;57.696;11.950;2023-03-23T12:40:19;99178.16;;;11.98;100.00
13015;BME280;6573;57.696;11.950;2023-03-23T12:42:55;99169.09;;;12.05;100.00
13015;BME280;6573;57.696;11.950;2023-03-23T12:45:43;99168.47;;;12.23;100.00
13015;BME280;6573;57.696;11.950;2023-03-23T12:48:17;99191.16;;;12.27;100.00
13015;BME280;6573;57.696;11.950;2023-03-23T12:51:06;99194.25;;;11.89;100.00
13015;BME280;6573;57.696;11.950;2023-03-23T12:53:41;99201.06;;;11.69;100.00
13015;BME280;6573;57.696;11.950;2023-03-23T12:56:16;99180.75;;;11.73;100.00
13015;BME280;6573;57.696;11.950;2023-03-23T12:58:47;99205.22;;;12.01;100.00
13015;BME280;6573;57.696;11.950;2023-03-23T13:01:20;99206.00;;;12.05;100.00
13015;BME280;6573;57.696;11.950;2023-03-23T13:03:52;99215.31;;;11.89;100.00
13015;BME280;6573;57.696;11.950;2023-03-23T13:06:27;99220.59;;;11.89;100.00
13015;BME280;6573;57.696;11.950;2023-03-23T13:09:02;99216.97;;;11.93;100.00
13015;BME280;6573;57.696;11.950;2023-03-23T13:11:33;99225.78;;;11.92;100.00
13015;BME280;6573;57.696;11.950;2023-03-23T13:14:11;99229.44;;;11.88;100.00
13015;BME280;6573;57.696;11.950;2023-03-23T13:16:46;99226.72;;;11.89;100.00